createdAt,value
2022-12-22T00:00:36.331Z,0.00
2022-12-22T00:01:35.638Z,0.00
2022-12-22T00:02:37.293Z,0.00
2022-12-22T00:03:35.562Z,0.00
2022-12-22T00:04:36.457Z,0.00
2022-12-22T00:05:35.947Z,0.00
2022-12-22T00:06:37.015Z,0.00
2022-12-22T00:07:37.729Z,0.00
2022-12-22T00:08:35.573Z,0.00
2022-12-22T00:09:36.763Z,0.00
2022-12-22T00:10:36.816Z,0.00
2022-12-22T00:11:36.526Z,0.00
2022-12-22T00:12:34.860Z,0.00
2022-12-22T00:13:37.361Z,0.00
2022-12-22T00:14:35.996Z,0.00
2022-12-22T00:15:35.969Z,0.00
2022-12-22T00:16:35.943Z,0.00
2022-12-22T00:17:35.018Z,0.00
2022-12-22T00:18:35.314Z,0.00
2022-12-22T00:19:36.859Z,0.00
2022-12-22T00:20:37.789Z,0.00
2022-12-22T00:21:37.118Z,0.00
2022-12-22T00:22:36.627Z,0.00
2022-12-22T00:23:35.408Z,0.00
2022-12-22T00:24:35.375Z,0.00
2022-12-22T00:25:35.643Z,0.00
2022-12-22T00:26:35.670Z,0.00
2022-12-22T00:27:35.067Z,0.00
2022-12-22T00:28:34.803Z,0.00
2022-12-22T00:29:36.256Z,0.00
2022-12-22T00:30:35.322Z,0.00
2022-12-22T00:31:35.297Z,0.00
2022-12-22T00:32:34.945Z,0.00
2022-12-22T00:33:34.869Z,0.00
2022-12-22T00:34:34.659Z,0.00
2022-12-22T00:35:35.669Z,0.00
2022-12-22T00:36:35.262Z,0.00
2022-12-22T00:37:35.469Z,0.00
2022-12-22T00:38:37.076Z,0.00
2022-12-22T00:39:35.494Z,0.00
2022-12-22T00:40:37.292Z,0.00
2022-12-22T00:41:35.493Z,0.00
2022-12-22T00:42:35.727Z,0.00
2022-12-22T00:43:35.837Z,0.00
2022-12-22T00:44:35.226Z,0.00
2022-12-22T00:45:34.701Z,0.00
2022-12-22T00:46:35.142Z,0.00
2022-12-22T00:47:35.447Z,0.00
2022-12-22T00:48:34.860Z,0.00
2022-12-22T00:49:36.553Z,0.00
2022-12-22T00:50:35.401Z,0.00
2022-12-22T00:51:35.385Z,0.00
2022-12-22T00:52:35.080Z,0.00
2022-12-22T00:53:35.302Z,0.00
2022-12-22T00:54:35.133Z,0.00
2022-12-22T00:55:34.410Z,0.00
2022-12-22T00:56:35.304Z,0.00
2022-12-22T00:57:35.264Z,0.00
2022-12-22T00:58:35.173Z,0.00
2022-12-22T00:59:35.278Z,0.00
2022-12-22T01:00:34.965Z,0.00
2022-12-22T01:01:35.118Z,0.00
2022-12-22T01:02:35.421Z,0.00
2022-12-22T01:03:35.057Z,0.00
2022-12-22T01:04:35.223Z,0.00
2022-12-22T01:05:34.963Z,0.00
2022-12-22T01:06:35.146Z,0.00
2022-12-22T01:07:35.177Z,0.00
2022-12-22T01:08:35.158Z,0.00
2022-12-22T01:09:35.168Z,0.00
2022-12-22T01:10:35.641Z,0.00
2022-12-22T01:11:35.139Z,0.00
2022-12-22T01:12:34.834Z,0.00
2022-12-22T01:13:35.106Z,0.00
2022-12-22T01:14:34.837Z,0.00
2022-12-22T01:15:34.876Z,0.00
2022-12-22T01:16:34.844Z,0.00
2022-12-22T01:17:35.068Z,0.00
2022-12-22T01:18:35.193Z,0.00
2022-12-22T01:19:35.077Z,0.00
2022-12-22T01:20:35.053Z,0.00
2022-12-22T01:21:34.762Z,0.00
2022-12-22T01:22:34.748Z,0.00
2022-12-22T01:23:34.740Z,0.00
2022-12-22T01:24:35.056Z,0.00
2022-12-22T01:25:34.721Z,0.00
2022-12-22T01:26:34.959Z,0.00
2022-12-22T01:27:34.697Z,0.00
2022-12-22T01:28:34.947Z,0.00
2022-12-22T01:29:34.950Z,0.00
2022-12-22T01:30:35.038Z,0.00
2022-12-22T01:31:34.913Z,0.00
2022-12-22T01:32:34.893Z,0.00
2022-12-22T01:33:34.890Z,0.00
2022-12-22T01:34:34.907Z,0.00
2022-12-22T01:35:34.603Z,0.00
2022-12-22T01:36:34.972Z,0.00
2022-12-22T01:37:34.852Z,0.00
2022-12-22T01:38:34.878Z,0.00
2022-12-22T01:39:34.837Z,0.00
2022-12-22T01:40:34.559Z,0.00
2022-12-22T01:41:34.555Z,0.00
2022-12-22T01:42:34.852Z,0.00
2022-12-22T01:43:34.803Z,0.00
2022-12-22T01:44:34.775Z,0.00
2022-12-22T01:45:34.494Z,0.00
2022-12-22T01:46:34.532Z,0.00
2022-12-22T01:47:34.483Z,0.00
2022-12-22T01:48:34.442Z,0.00
2022-12-22T01:49:33.837Z,0.00
2022-12-22T01:50:34.732Z,0.00
2022-12-22T01:51:33.762Z,0.00
2022-12-22T01:52:34.700Z,0.00
2022-12-22T01:53:34.680Z,0.00
2022-12-22T01:54:33.757Z,0.00
2022-12-22T01:55:34.399Z,0.00
2022-12-22T01:56:34.387Z,0.00
2022-12-22T01:57:34.379Z,0.00
2022-12-22T01:58:33.696Z,0.00
2022-12-22T01:59:34.441Z,0.00
2022-12-22T02:00:34.316Z,0.00
2022-12-22T02:01:34.397Z,0.00
2022-12-22T02:02:34.517Z,0.00
2022-12-22T02:03:33.690Z,0.00
2022-12-22T02:04:33.639Z,0.00
2022-12-22T02:05:34.299Z,0.00
2022-12-22T02:06:34.294Z,0.00
2022-12-22T02:07:34.267Z,0.00
2022-12-22T02:08:34.527Z,0.00
2022-12-22T02:09:34.251Z,0.00
2022-12-22T02:10:34.243Z,0.00
2022-12-22T02:11:34.230Z,0.00
2022-12-22T02:12:33.568Z,0.00
2022-12-22T02:13:34.216Z,0.00
2022-12-22T02:14:34.216Z,0.00
2022-12-22T02:15:33.503Z,0.00
2022-12-22T02:16:33.620Z,0.00
2022-12-22T02:17:34.157Z,0.00
2022-12-22T02:18:34.431Z,0.00
2022-12-22T02:19:34.161Z,0.00
2022-12-22T02:20:33.439Z,0.00
2022-12-22T02:21:34.121Z,0.00
2022-12-22T02:22:34.107Z,0.00
2022-12-22T02:23:34.105Z,0.00
2022-12-22T02:24:34.168Z,0.00
2022-12-22T02:25:33.440Z,0.00
2022-12-22T02:26:33.371Z,0.00
2022-12-22T02:27:33.392Z,0.00
2022-12-22T02:28:34.043Z,0.00
2022-12-22T02:29:34.025Z,0.00
2022-12-22T02:30:34.102Z,0.00
2022-12-22T02:31:34.054Z,0.00
2022-12-22T02:32:34.001Z,0.00
2022-12-22T02:33:33.305Z,0.00
2022-12-22T02:34:33.317Z,0.00
2022-12-22T02:35:33.310Z,0.00
2022-12-22T02:36:33.954Z,0.00
2022-12-22T02:37:34.212Z,0.00
2022-12-22T02:38:34.185Z,0.00
2022-12-22T02:39:33.926Z,0.00
2022-12-22T02:40:40.891Z,0.00
2022-12-22T02:41:34.893Z,0.00
2022-12-22T02:42:33.886Z,0.00
2022-12-22T02:43:33.875Z,0.00
2022-12-22T02:44:33.195Z,0.00
2022-12-22T02:45:33.224Z,0.00
2022-12-22T02:46:33.342Z,0.00
2022-12-22T02:47:33.843Z,0.00
2022-12-22T02:48:33.824Z,0.00
2022-12-22T02:49:33.819Z,0.00
2022-12-22T02:50:33.147Z,0.00
2022-12-22T02:51:33.157Z,0.00
2022-12-22T02:52:33.802Z,0.00
2022-12-22T02:53:33.776Z,0.00
2022-12-22T02:54:34.047Z,0.00
2022-12-22T02:55:33.756Z,0.00
2022-12-22T02:56:33.745Z,0.00
2022-12-22T02:57:33.057Z,0.00
2022-12-22T02:58:33.784Z,0.00
2022-12-22T02:59:33.035Z,0.00
2022-12-22T03:00:33.689Z,0.00
2022-12-22T03:01:33.813Z,0.00
2022-12-22T03:02:33.984Z,0.00
2022-12-22T03:03:33.163Z,0.00
2022-12-22T03:04:33.009Z,0.00
2022-12-22T03:05:33.647Z,0.00
2022-12-22T03:06:33.639Z,0.00
2022-12-22T03:07:33.647Z,0.00
2022-12-22T03:08:33.889Z,0.00
2022-12-22T03:09:33.839Z,0.00
2022-12-22T03:10:33.573Z,0.00
2022-12-22T03:11:33.872Z,0.00
2022-12-22T03:12:33.829Z,0.00
2022-12-22T03:13:33.573Z,0.00
2022-12-22T03:14:33.827Z,0.00
2022-12-22T03:15:33.548Z,0.00
2022-12-22T03:16:33.836Z,0.00
2022-12-22T03:17:33.784Z,0.00
2022-12-22T03:18:33.772Z,0.00
2022-12-22T03:19:33.514Z,0.00
2022-12-22T03:20:33.489Z,0.00
2022-12-22T03:21:33.724Z,0.00
2022-12-22T03:22:33.505Z,0.00
2022-12-22T03:23:33.497Z,0.00
2022-12-22T03:24:33.447Z,0.00
2022-12-22T03:25:32.761Z,0.00
2022-12-22T03:26:32.747Z,0.00
2022-12-22T03:27:33.670Z,0.00
2022-12-22T03:28:32.751Z,0.00
2022-12-22T03:29:33.393Z,0.00
2022-12-22T03:30:33.651Z,0.00
2022-12-22T03:31:33.705Z,0.00
2022-12-22T03:32:33.354Z,0.00
2022-12-22T03:33:33.613Z,0.00
2022-12-22T03:34:33.316Z,0.00
2022-12-22T03:35:32.665Z,0.00
2022-12-22T03:36:32.635Z,0.00
2022-12-22T03:37:32.616Z,0.00
2022-12-22T03:38:33.536Z,0.00
2022-12-22T03:39:33.293Z,0.00
2022-12-22T03:40:33.535Z,0.00
2022-12-22T03:41:33.282Z,0.00
2022-12-22T03:42:33.517Z,0.00
2022-12-22T03:43:33.249Z,0.00
2022-12-22T03:44:33.461Z,0.00
2022-12-22T03:45:33.455Z,0.00
2022-12-22T03:46:33.510Z,0.00
2022-12-22T03:47:33.189Z,0.00
2022-12-22T03:48:32.535Z,0.00
2022-12-22T03:49:33.177Z,0.00
2022-12-22T03:50:33.178Z,0.00
2022-12-22T03:51:33.158Z,0.00
2022-12-22T03:52:33.131Z,0.00
2022-12-22T03:53:33.130Z,0.00
2022-12-22T03:54:33.126Z,0.00
2022-12-22T03:55:32.445Z,0.00
2022-12-22T03:56:33.097Z,0.00
2022-12-22T03:57:33.069Z,0.00
2022-12-22T03:58:33.082Z,0.00
2022-12-22T03:59:33.068Z,0.00
2022-12-22T04:00:33.053Z,0.00
2022-12-22T04:01:33.290Z,0.00
2022-12-22T04:02:33.126Z,0.00
2022-12-22T04:03:33.072Z,0.00
2022-12-22T04:04:33.022Z,0.00
2022-12-22T04:05:32.319Z,0.00
2022-12-22T04:06:32.981Z,0.00
2022-12-22T04:07:32.986Z,0.00
2022-12-22T04:08:32.995Z,0.00
2022-12-22T04:09:32.957Z,0.00
2022-12-22T04:10:32.942Z,0.00
2022-12-22T04:11:32.940Z,0.00
2022-12-22T04:12:32.248Z,0.00
2022-12-22T04:13:32.250Z,0.00
2022-12-22T04:14:34.701Z,0.00
2022-12-22T04:15:32.908Z,0.00
2022-12-22T04:16:32.245Z,0.00
2022-12-22T04:17:32.867Z,0.00
2022-12-22T04:18:32.867Z,0.00
2022-12-22T04:19:32.847Z,0.00
2022-12-22T04:20:32.833Z,0.00
2022-12-22T04:21:32.849Z,0.00
2022-12-22T04:22:32.147Z,0.00
2022-12-22T04:23:32.130Z,0.00
2022-12-22T04:24:32.133Z,0.00
2022-12-22T04:25:32.129Z,0.00
2022-12-22T04:26:32.134Z,0.00
2022-12-22T04:27:32.141Z,0.00
2022-12-22T04:28:32.777Z,0.00
2022-12-22T04:29:32.737Z,0.00
2022-12-22T04:30:32.736Z,0.00
2022-12-22T04:31:32.751Z,0.00
2022-12-22T04:32:32.710Z,0.00
2022-12-22T04:33:32.712Z,0.00
2022-12-22T04:34:32.687Z,0.00
2022-12-22T04:35:32.694Z,0.00
2022-12-22T04:36:31.977Z,0.00
2022-12-22T04:37:32.647Z,0.00
2022-12-22T04:38:32.652Z,0.00
2022-12-22T04:39:32.623Z,0.00
2022-12-22T04:40:32.618Z,0.00
2022-12-22T04:41:32.603Z,0.00
2022-12-22T04:42:32.608Z,0.00
2022-12-22T04:43:32.579Z,0.00
2022-12-22T04:44:32.571Z,0.00
2022-12-22T04:45:32.105Z,0.00
2022-12-22T04:46:31.980Z,0.00
2022-12-22T04:47:32.580Z,0.00
2022-12-22T04:48:31.864Z,0.00
2022-12-22T04:49:32.511Z,0.00
2022-12-22T04:50:31.846Z,0.00
2022-12-22T04:51:32.505Z,0.00
2022-12-22T04:52:31.819Z,0.00
2022-12-22T04:53:31.807Z,0.00
2022-12-22T04:54:32.476Z,0.00
2022-12-22T04:55:32.451Z,0.00
2022-12-22T04:56:32.450Z,0.00
2022-12-22T04:57:36.828Z,0.00
2022-12-22T04:58:33.430Z,0.00
2022-12-22T04:59:32.416Z,0.00
2022-12-22T05:00:31.740Z,0.00
2022-12-22T05:01:32.682Z,0.00
2022-12-22T05:02:32.452Z,0.00
2022-12-22T05:03:31.893Z,0.00
2022-12-22T05:04:32.380Z,0.00
2022-12-22T05:05:32.584Z,0.00
2022-12-22T05:06:32.589Z,0.00
2022-12-22T05:07:32.339Z,0.00
2022-12-22T05:08:32.310Z,0.00
2022-12-22T05:09:32.297Z,0.00
2022-12-22T05:10:31.635Z,0.00
2022-12-22T05:11:32.266Z,0.00
2022-12-22T05:12:32.262Z,0.00
2022-12-22T05:13:32.250Z,0.00
2022-12-22T05:14:32.504Z,0.00
2022-12-22T05:15:32.538Z,0.00
2022-12-22T05:16:32.533Z,0.00
2022-12-22T05:17:32.489Z,0.00
2022-12-22T05:18:32.448Z,0.00
2022-12-22T05:19:31.511Z,0.00
2022-12-22T05:20:31.502Z,0.00
2022-12-22T05:21:31.641Z,0.00
2022-12-22T05:22:32.151Z,0.00
2022-12-22T05:23:32.436Z,0.00
2022-12-22T05:24:32.380Z,0.00
2022-12-22T05:25:35.295Z,0.00
2022-12-22T05:26:31.423Z,0.00
2022-12-22T05:27:32.396Z,0.00
2022-12-22T05:28:32.097Z,0.00
2022-12-22T05:29:31.397Z,0.00
2022-12-22T05:30:32.094Z,0.00
2022-12-22T05:31:31.411Z,0.00
2022-12-22T05:32:31.383Z,0.00
2022-12-22T05:33:31.391Z,0.00
2022-12-22T05:34:32.030Z,0.00
2022-12-22T05:35:32.008Z,0.00
2022-12-22T05:36:32.000Z,0.00
2022-12-22T05:37:31.324Z,0.00
2022-12-22T05:38:31.993Z,0.00
2022-12-22T05:39:31.333Z,0.00
2022-12-22T05:40:31.963Z,0.00
2022-12-22T05:41:31.948Z,0.00
2022-12-22T05:42:31.940Z,0.00
2022-12-22T05:43:31.307Z,0.00
2022-12-22T05:44:31.223Z,0.00
2022-12-22T05:45:31.981Z,0.00
2022-12-22T05:46:31.927Z,0.00
2022-12-22T05:47:31.881Z,0.00
2022-12-22T05:48:37.505Z,0.00
2022-12-22T05:49:33.093Z,0.00
2022-12-22T05:50:31.839Z,0.00
2022-12-22T05:51:31.845Z,0.00
2022-12-22T05:52:31.819Z,0.00
2022-12-22T05:53:31.133Z,0.00
2022-12-22T05:54:31.793Z,0.00
2022-12-22T05:55:31.112Z,0.00
2022-12-22T05:56:31.774Z,0.00
2022-12-22T05:57:31.763Z,0.00
2022-12-22T05:58:31.767Z,0.00
2022-12-22T05:59:31.062Z,0.00
2022-12-22T06:00:31.054Z,0.00
2022-12-22T06:01:31.798Z,0.00
2022-12-22T06:02:31.227Z,0.00
2022-12-22T06:03:31.904Z,0.00
2022-12-22T06:04:31.760Z,0.00
2022-12-22T06:05:31.001Z,0.00
2022-12-22T06:06:31.014Z,0.00
2022-12-22T06:07:30.988Z,0.00
2022-12-22T06:08:30.971Z,0.00
2022-12-22T06:09:31.635Z,0.00
2022-12-22T06:10:31.641Z,0.00
2022-12-22T06:11:31.608Z,0.00
2022-12-22T06:12:31.631Z,0.00
2022-12-22T06:13:30.916Z,0.00
2022-12-22T06:14:30.917Z,0.00
2022-12-22T06:15:31.548Z,0.00
2022-12-22T06:16:31.607Z,0.00
2022-12-22T06:17:31.545Z,0.00
2022-12-22T06:18:31.543Z,0.00
2022-12-22T06:19:30.850Z,0.00
2022-12-22T06:20:30.889Z,0.00
2022-12-22T06:21:30.872Z,0.00
2022-12-22T06:22:31.500Z,0.00
2022-12-22T06:23:30.809Z,0.00
2022-12-22T06:24:30.810Z,0.00
2022-12-22T06:25:31.462Z,0.00
2022-12-22T06:26:30.787Z,0.00
2022-12-22T06:27:32.197Z,0.00
2022-12-22T06:28:31.430Z,0.00
2022-12-22T06:29:30.752Z,0.00
2022-12-22T06:30:33.588Z,0.00
2022-12-22T06:31:32.216Z,0.00
2022-12-22T06:32:31.636Z,0.00
2022-12-22T06:33:31.741Z,0.00
2022-12-22T06:34:31.644Z,0.00
2022-12-22T06:35:31.625Z,0.00
2022-12-22T06:36:31.593Z,0.00
2022-12-22T06:37:31.594Z,0.00
2022-12-22T06:38:31.613Z,0.00
2022-12-22T06:39:31.605Z,0.00
2022-12-22T06:40:31.295Z,0.00
2022-12-22T06:41:31.292Z,0.00
2022-12-22T06:42:30.624Z,0.00
2022-12-22T06:43:31.262Z,0.00
2022-12-22T06:44:31.261Z,0.00
2022-12-22T06:45:31.223Z,0.00
2022-12-22T06:46:30.624Z,0.00
2022-12-22T06:47:30.534Z,0.00
2022-12-22T06:48:31.210Z,0.00
2022-12-22T06:49:31.194Z,0.00
2022-12-22T06:50:30.508Z,0.00
2022-12-22T06:51:30.514Z,0.00
2022-12-22T06:52:31.167Z,0.00
2022-12-22T06:53:31.146Z,0.00
2022-12-22T06:54:31.137Z,0.00
2022-12-22T06:55:31.432Z,0.00
2022-12-22T06:56:31.126Z,0.00
2022-12-22T06:57:31.408Z,0.00
2022-12-22T06:58:31.390Z,0.00
2022-12-22T06:59:31.350Z,0.00
2022-12-22T07:00:31.082Z,0.00
2022-12-22T07:01:31.441Z,0.00
2022-12-22T07:02:31.569Z,0.00
2022-12-22T07:03:31.413Z,0.00
2022-12-22T07:04:31.028Z,0.00
2022-12-22T07:05:30.349Z,0.00
2022-12-22T07:06:31.010Z,0.00
2022-12-22T07:07:30.996Z,0.00
2022-12-22T07:08:30.993Z,0.00
2022-12-22T07:09:31.366Z,0.00
2022-12-22T07:10:30.409Z,0.00
2022-12-22T07:11:30.342Z,4.00
2022-12-22T07:12:30.960Z,4.00
2022-12-22T07:13:30.933Z,4.00
2022-12-22T07:14:30.920Z,0.00
2022-12-22T07:15:30.892Z,4.00
2022-12-22T07:16:30.959Z,4.00
2022-12-22T07:17:30.887Z,4.00
2022-12-22T07:18:31.169Z,8.00
2022-12-22T07:19:31.142Z,4.00
2022-12-22T07:20:31.127Z,8.00
2022-12-22T07:21:31.141Z,8.00
2022-12-22T07:22:31.328Z,12.00
2022-12-22T07:23:30.838Z,16.00
2022-12-22T07:24:30.824Z,16.00
2022-12-22T07:25:31.061Z,20.00
2022-12-22T07:26:31.061Z,20.00
2022-12-22T07:27:31.094Z,20.00
2022-12-22T07:28:30.782Z,20.00
2022-12-22T07:29:31.028Z,20.00
2022-12-22T07:30:30.743Z,24.00
2022-12-22T07:31:31.103Z,28.00
2022-12-22T07:32:30.723Z,32.00
2022-12-22T07:33:30.998Z,36.00
2022-12-22T07:34:30.704Z,40.00
2022-12-22T07:35:30.299Z,40.00
2022-12-22T07:36:30.978Z,44.00
2022-12-22T07:37:30.958Z,40.00
2022-12-22T07:38:30.656Z,44.00
2022-12-22T07:39:30.945Z,48.00
2022-12-22T07:40:30.894Z,52.00
2022-12-22T07:41:30.869Z,52.00
2022-12-22T07:42:30.897Z,52.00
2022-12-22T07:43:30.610Z,56.00
2022-12-22T07:44:30.693Z,56.00
2022-12-22T07:45:30.952Z,60.00
2022-12-22T07:46:30.165Z,60.00
2022-12-22T07:47:35.211Z,60.00
2022-12-22T07:48:30.956Z,64.00
2022-12-22T07:49:30.117Z,76.00
2022-12-22T07:50:30.820Z,88.00
2022-12-22T07:51:30.913Z,96.00
2022-12-22T07:52:30.811Z,108.00
2022-12-22T07:53:30.509Z,112.00
2022-12-22T07:54:36.585Z,116.00
2022-12-22T07:55:31.466Z,116.00
2022-12-22T07:56:30.469Z,128.00
2022-12-22T07:57:30.437Z,136.00
2022-12-22T07:58:29.876Z,144.00
2022-12-22T07:59:30.849Z,144.00
2022-12-22T08:00:30.002Z,148.00
2022-12-22T08:01:29.972Z,156.00
2022-12-22T08:02:36.876Z,156.00
2022-12-22T08:03:31.871Z,148.00
2022-12-22T08:04:30.861Z,136.00
2022-12-22T08:05:31.190Z,132.00
2022-12-22T08:06:31.663Z,132.00
2022-12-22T08:07:30.361Z,132.00
2022-12-22T08:08:30.331Z,136.00
2022-12-22T08:09:31.213Z,136.00
2022-12-22T08:10:30.593Z,132.00
2022-12-22T08:11:30.304Z,136.00
2022-12-22T08:12:33.520Z,160.00
2022-12-22T08:13:29.777Z,160.00
2022-12-22T08:14:30.598Z,148.00
2022-12-22T08:15:30.603Z,156.00
2022-12-22T08:16:30.085Z,164.00
2022-12-22T08:17:30.253Z,152.00
2022-12-22T08:18:31.690Z,168.00
2022-12-22T08:19:30.215Z,176.00
2022-12-22T08:20:30.214Z,164.00
2022-12-22T08:21:30.523Z,156.00
2022-12-22T08:22:31.178Z,168.00
2022-12-22T08:23:29.651Z,168.00
2022-12-22T08:24:31.268Z,160.00
2022-12-22T08:25:30.146Z,160.00
2022-12-22T08:26:30.539Z,160.00
2022-12-22T08:27:30.654Z,164.00
2022-12-22T08:28:31.935Z,168.00
2022-12-22T08:29:29.532Z,180.00
2022-12-22T08:30:30.619Z,188.00
2022-12-22T08:31:30.130Z,188.00
2022-12-22T08:32:30.301Z,208.00
2022-12-22T08:33:31.446Z,240.00
2022-12-22T08:34:30.054Z,256.00
2022-12-22T08:35:30.052Z,264.00
2022-12-22T08:36:30.357Z,252.00
2022-12-22T08:37:30.704Z,272.00
2022-12-22T08:38:30.010Z,260.00
2022-12-22T08:39:30.348Z,260.00
2022-12-22T08:40:29.641Z,280.00
2022-12-22T08:41:29.990Z,276.00
2022-12-22T08:42:30.246Z,272.00
2022-12-22T08:43:29.347Z,300.00
2022-12-22T08:44:29.967Z,276.00
2022-12-22T08:45:30.250Z,308.00
2022-12-22T08:46:29.919Z,356.00
2022-12-22T08:47:29.982Z,400.00
2022-12-22T08:48:29.889Z,432.00
2022-12-22T08:49:30.282Z,400.00
2022-12-22T08:50:29.895Z,424.00
2022-12-22T08:51:30.231Z,428.00
2022-12-22T08:52:30.150Z,444.00
2022-12-22T08:54:03.346Z,416.00
2022-12-22T08:54:31.090Z,384.00
2022-12-22T08:55:30.086Z,408.00
2022-12-22T08:56:29.849Z,352.00
2022-12-22T08:57:30.096Z,324.00
2022-12-22T08:58:30.095Z,328.00
2022-12-22T08:59:29.792Z,332.00
2022-12-22T09:00:29.808Z,356.00
2022-12-22T09:01:30.208Z,376.00
2022-12-22T09:02:30.159Z,344.00
2022-12-22T09:03:29.804Z,328.00
2022-12-22T09:04:30.031Z,444.00
2022-12-22T09:05:29.995Z,632.00
2022-12-22T09:06:34.634Z,668.00
2022-12-22T09:07:31.477Z,808.00
2022-12-22T09:08:29.966Z,1352.00
2022-12-22T09:09:30.484Z,1996.00
2022-12-22T09:10:29.669Z,2372.00
2022-12-22T09:11:29.919Z,1680.00
2022-12-22T09:12:29.938Z,1060.00
2022-12-22T09:13:29.633Z,972.00
2022-12-22T09:14:29.960Z,868.00
2022-12-22T09:15:29.914Z,716.00
2022-12-22T09:16:29.917Z,696.00
2022-12-22T09:17:29.849Z,596.00
2022-12-22T09:18:29.846Z,588.00
2022-12-22T09:19:29.567Z,536.00
2022-12-22T09:20:29.817Z,460.00
2022-12-22T09:21:29.533Z,448.00
2022-12-22T09:22:29.800Z,452.00
2022-12-22T09:23:29.533Z,392.00
2022-12-22T09:24:29.809Z,432.00
2022-12-22T09:25:29.758Z,540.00
2022-12-22T09:26:29.493Z,516.00
2022-12-22T09:27:29.500Z,640.00
2022-12-22T09:28:29.729Z,492.00
2022-12-22T09:29:29.464Z,576.00
2022-12-22T09:30:29.457Z,596.00
2022-12-22T09:31:29.865Z,612.00
2022-12-22T09:32:29.443Z,448.00
2022-12-22T09:33:29.422Z,364.00
2022-12-22T09:34:29.663Z,296.00
2022-12-22T09:35:29.675Z,360.00
2022-12-22T09:36:29.864Z,456.00
2022-12-22T09:37:29.659Z,544.00
2022-12-22T09:38:29.626Z,656.00
2022-12-22T09:39:29.771Z,744.00
2022-12-22T09:40:29.350Z,840.00
2022-12-22T09:41:29.600Z,616.00
2022-12-22T09:42:29.571Z,476.00
2022-12-22T09:43:29.310Z,400.00
2022-12-22T09:44:29.285Z,356.00
2022-12-22T09:45:29.765Z,412.00
2022-12-22T09:46:29.626Z,500.00
2022-12-22T09:47:29.267Z,436.00
2022-12-22T09:48:29.524Z,456.00
2022-12-22T09:49:28.590Z,940.00
2022-12-22T09:50:29.227Z,1620.00
2022-12-22T09:51:29.560Z,2148.00
2022-12-22T09:52:29.209Z,2296.00
2022-12-22T09:53:29.200Z,2272.00
2022-12-22T09:54:29.458Z,2496.00
2022-12-22T09:55:29.421Z,2600.00
2022-12-22T09:56:29.458Z,2760.00
2022-12-22T09:57:29.424Z,2852.00
2022-12-22T09:58:29.147Z,2884.00
2022-12-22T09:59:29.164Z,2844.00
2022-12-22T10:00:29.348Z,2716.00
2022-12-22T10:01:29.539Z,3844.00
2022-12-22T10:02:29.520Z,3824.00
2022-12-22T10:03:29.184Z,3144.00
2022-12-22T10:04:29.065Z,2964.00
2022-12-22T10:05:29.305Z,3108.00
2022-12-22T10:06:29.050Z,3136.00
2022-12-22T10:07:29.286Z,3108.00
2022-12-22T10:08:29.023Z,3048.00
2022-12-22T10:09:49.778Z,2992.00
2022-12-22T10:10:29.383Z,2968.00
2022-12-22T10:11:28.993Z,2888.00
2022-12-22T10:12:29.279Z,2836.00
2022-12-22T10:13:28.979Z,2792.00
2022-12-22T10:14:29.245Z,2748.00
2022-12-22T10:15:29.277Z,2640.00
2022-12-22T10:16:29.250Z,2472.00
2022-12-22T10:17:29.214Z,2328.00
2022-12-22T10:18:29.183Z,2292.00
2022-12-22T10:19:29.216Z,2268.00
2022-12-22T10:20:28.901Z,2216.00
2022-12-22T10:21:29.197Z,2124.00
2022-12-22T10:22:29.171Z,2040.00
2022-12-22T10:23:28.870Z,2036.00
2022-12-22T10:24:29.145Z,2052.00
2022-12-22T10:25:35.857Z,2008.00
2022-12-22T10:26:31.431Z,1912.00
2022-12-22T10:27:29.444Z,1844.00
2022-12-22T10:28:28.815Z,1816.00
2022-12-22T10:29:28.810Z,1816.00
2022-12-22T10:30:29.041Z,1800.00
2022-12-22T10:31:28.823Z,1748.00
2022-12-22T10:32:28.762Z,1712.00
2022-12-22T10:33:28.756Z,1656.00
2022-12-22T10:34:28.938Z,1624.00
2022-12-22T10:35:28.731Z,1600.00
2022-12-22T10:36:28.774Z,1600.00
2022-12-22T10:37:28.716Z,1608.00
2022-12-22T10:38:28.782Z,1620.00
2022-12-22T10:39:28.964Z,1616.00
2022-12-22T10:40:28.943Z,1716.00
2022-12-22T10:41:28.947Z,1796.00
2022-12-22T10:42:28.653Z,1896.00
2022-12-22T10:43:28.905Z,1996.00
2022-12-22T10:44:28.730Z,2020.00
2022-12-22T10:45:28.614Z,2068.00
2022-12-22T10:46:28.887Z,2156.00
2022-12-22T10:47:28.874Z,2152.00
2022-12-22T10:48:28.902Z,2084.00
2022-12-22T10:49:28.844Z,2068.00
2022-12-22T10:50:28.571Z,2076.00
2022-12-22T10:51:28.561Z,2120.00
2022-12-22T10:52:31.992Z,2128.00
2022-12-22T10:53:28.776Z,2108.00
2022-12-22T10:54:28.777Z,2140.00
2022-12-22T10:55:28.791Z,2180.00
2022-12-22T10:56:28.860Z,2164.00
2022-12-22T10:57:28.503Z,2176.00
2022-12-22T10:58:29.751Z,2132.00
2022-12-22T10:59:28.710Z,2284.00
2022-12-22T11:00:28.465Z,2468.00
2022-12-22T11:01:29.937Z,2756.00
2022-12-22T11:02:28.618Z,2672.00
2022-12-22T11:03:28.839Z,2644.00
2022-12-22T11:04:29.678Z,2004.00
2022-12-22T11:05:28.672Z,1748.00
2022-12-22T11:06:29.690Z,1756.00
2022-12-22T11:07:28.694Z,1864.00
2022-12-22T11:08:28.639Z,2048.00
2022-12-22T11:09:36.071Z,2284.00
2022-12-22T11:10:29.600Z,2416.00
2022-12-22T11:11:28.580Z,2748.00
2022-12-22T11:12:29.590Z,3172.00
2022-12-22T11:13:29.610Z,3284.00
2022-12-22T11:14:29.562Z,3156.00
2022-12-22T11:15:29.558Z,3020.00
2022-12-22T11:16:29.678Z,3264.00
2022-12-22T11:17:29.569Z,2916.00
2022-12-22T11:18:29.534Z,2736.00
2022-12-22T11:19:29.563Z,2428.00
2022-12-22T11:20:28.490Z,2284.00
2022-12-22T11:21:29.521Z,2204.00
2022-12-22T11:22:29.542Z,2216.00
2022-12-22T11:23:29.490Z,2192.00
2022-12-22T11:24:28.472Z,2132.00
2022-12-22T11:25:28.507Z,2160.00
2022-12-22T11:26:28.414Z,2288.00
2022-12-22T11:27:29.437Z,2096.00
2022-12-22T11:28:29.440Z,2072.00
2022-12-22T11:29:29.451Z,1892.00
2022-12-22T11:30:28.946Z,1620.00
2022-12-22T11:31:29.569Z,1944.00
2022-12-22T11:32:28.903Z,2128.00
2022-12-22T11:33:28.765Z,2120.00
2022-12-22T11:34:29.376Z,2604.00
2022-12-22T11:35:29.336Z,2272.00
2022-12-22T11:36:28.851Z,1972.00
2022-12-22T11:37:29.367Z,1796.00
2022-12-22T11:38:29.309Z,1660.00
2022-12-22T11:39:29.304Z,1660.00
2022-12-22T11:40:28.832Z,1656.00
2022-12-22T11:41:28.826Z,1668.00
2022-12-22T11:42:28.809Z,1704.00
2022-12-22T11:43:28.805Z,1784.00
2022-12-22T11:44:29.266Z,1772.00
2022-12-22T11:45:30.636Z,1724.00
2022-12-22T11:46:29.024Z,1608.00
2022-12-22T11:47:32.553Z,1592.00
2022-12-22T11:48:28.091Z,1588.00
2022-12-22T11:49:28.929Z,1588.00
2022-12-22T11:50:59.266Z,1560.00
2022-12-22T11:51:29.637Z,1520.00
2022-12-22T11:52:28.188Z,1508.00
2022-12-22T11:53:29.160Z,1484.00
2022-12-22T11:54:28.152Z,1480.00
2022-12-22T11:55:29.313Z,1468.00
2022-12-22T11:56:29.134Z,1460.00
2022-12-22T11:57:29.129Z,1460.00
2022-12-22T11:58:29.161Z,1456.00
2022-12-22T11:59:29.086Z,1444.00
2022-12-22T12:00:56.136Z,1440.00
2022-12-22T12:01:29.737Z,1448.00
2022-12-22T12:02:29.252Z,1436.00
2022-12-22T12:03:29.238Z,1428.00
2022-12-22T12:04:29.369Z,1412.00
2022-12-22T12:05:28.080Z,1380.00
2022-12-22T12:06:29.027Z,1372.00
2022-12-22T12:07:29.068Z,1392.00
2022-12-22T12:08:28.997Z,1408.00
2022-12-22T12:09:27.824Z,1400.00
2022-12-22T12:10:28.990Z,1440.00
2022-12-22T12:11:28.947Z,1452.00
2022-12-22T12:12:35.039Z,1436.00
2022-12-22T12:13:33.089Z,1480.00
2022-12-22T12:14:29.926Z,1432.00
2022-12-22T12:15:28.936Z,1352.00
2022-12-22T12:16:29.016Z,1316.00
2022-12-22T12:17:28.937Z,1336.00
2022-12-22T12:18:29.055Z,1372.00
2022-12-22T12:19:29.097Z,1320.00
2022-12-22T12:20:28.897Z,1308.00
2022-12-22T12:21:28.944Z,1292.00
2022-12-22T12:22:28.949Z,1280.00
2022-12-22T12:23:28.853Z,1300.00
2022-12-22T12:24:27.761Z,1300.00
2022-12-22T12:25:28.822Z,1264.00
2022-12-22T12:26:28.802Z,1256.00
2022-12-22T12:27:28.803Z,1304.00
2022-12-22T12:28:28.798Z,1216.00
2022-12-22T12:29:28.761Z,1196.00
2022-12-22T12:30:37.974Z,1244.00
2022-12-22T12:31:29.817Z,1292.00
2022-12-22T12:32:29.480Z,1312.00
2022-12-22T12:33:28.727Z,1248.00
2022-12-22T12:34:28.750Z,1308.00
2022-12-22T12:35:28.714Z,1348.00
2022-12-22T12:36:28.806Z,1376.00
2022-12-22T12:37:27.768Z,1380.00
2022-12-22T12:39:29.677Z,1380.00
2022-12-22T12:40:29.369Z,1360.00
2022-12-22T12:41:28.641Z,1344.00
2022-12-22T12:42:28.723Z,1336.00
2022-12-22T12:43:28.629Z,1316.00
2022-12-22T12:44:28.624Z,1308.00
2022-12-22T12:45:28.606Z,1280.00
2022-12-22T12:46:27.610Z,1276.00
2022-12-22T12:47:28.609Z,1272.00
2022-12-22T12:48:28.779Z,1264.00
2022-12-22T12:49:28.567Z,1264.00
2022-12-22T12:50:29.534Z,1256.00
2022-12-22T12:51:28.529Z,1248.00
2022-12-22T12:52:28.507Z,1248.00